createdAt,value
2023-02-13T00:01:05.595Z,65.00
2023-02-13T00:03:33.344Z,65.48
2023-02-13T00:06:01.079Z,65.28
2023-02-13T00:08:28.822Z,64.97
2023-02-13T00:10:58.221Z,65.44
2023-02-13T00:13:26.121Z,64.90
2023-02-13T00:15:57.682Z,65.37
2023-02-13T00:18:25.472Z,65.67
2023-02-13T00:21:00.988Z,65.09
2023-02-13T00:23:31.127Z,65.34
2023-02-13T00:26:00.638Z,65.28
2023-02-13T00:28:29.029Z,65.23
2023-02-13T00:31:04.190Z,64.81
2023-02-13T00:33:31.980Z,65.11
2023-02-13T00:36:07.922Z,65.18
2023-02-13T00:38:35.915Z,65.65
2023-02-13T00:41:05.801Z,65.25
2023-02-13T00:43:33.665Z,64.87
2023-02-13T00:46:02.228Z,64.77
2023-02-13T00:48:31.594Z,65.39
2023-02-13T00:50:59.757Z,65.62
2023-02-13T00:53:28.567Z,64.82
2023-02-13T00:55:56.411Z,65.05
2023-02-13T00:58:26.170Z,65.46
2023-02-13T01:00:54.870Z,65.08
2023-02-13T01:03:24.003Z,64.87
2023-02-13T01:05:52.524Z,65.22
2023-02-13T01:08:21.683Z,64.70
2023-02-13T01:10:49.865Z,65.00
2023-02-13T01:13:19.482Z,64.71
2023-02-13T01:15:49.887Z,65.19
2023-02-13T01:18:19.596Z,65.05
2023-02-13T01:20:56.464Z,65.17
2023-02-13T01:23:24.358Z,65.37
2023-02-13T01:25:52.160Z,64.87
2023-02-13T01:28:19.925Z,64.90
2023-02-13T01:30:54.155Z,65.04
2023-02-13T01:33:22.372Z,64.62
2023-02-13T01:35:50.146Z,64.87
2023-02-13T01:38:17.937Z,64.88
2023-02-13T01:40:47.550Z,65.37
2023-02-13T01:43:15.757Z,65.07
2023-02-13T01:45:45.936Z,65.48
2023-02-13T01:48:18.369Z,65.02
2023-02-13T01:50:50.396Z,65.44
2023-02-13T01:53:22.970Z,64.92
2023-02-13T01:55:56.340Z,64.70
2023-02-13T01:58:30.005Z,65.33
2023-02-13T02:00:59.472Z,64.68
2023-02-13T02:03:32.740Z,65.31
2023-02-13T02:06:02.962Z,65.51
2023-02-13T02:08:31.996Z,65.11
2023-02-13T02:11:07.965Z,65.15
2023-02-13T02:13:35.701Z,65.26
2023-02-13T02:16:03.744Z,64.54
2023-02-13T02:18:32.834Z,64.91
2023-02-13T02:21:40.640Z,65.31
2023-02-13T02:24:33.654Z,64.83
2023-02-13T02:27:28.410Z,64.89
2023-02-13T02:30:24.617Z,65.23
2023-02-13T02:33:09.679Z,65.13
2023-02-13T02:35:47.588Z,65.55
2023-02-13T02:38:36.181Z,65.63
2023-02-13T02:41:11.320Z,65.27
2023-02-13T02:43:54.829Z,65.14
2023-02-13T02:46:28.764Z,65.14
2023-02-13T02:49:23.151Z,65.01
2023-02-13T02:52:02.997Z,65.18
2023-02-13T02:54:56.415Z,64.53
2023-02-13T02:57:48.228Z,65.20
2023-02-13T03:00:35.252Z,64.62
2023-02-13T03:03:21.121Z,64.53
2023-02-13T03:06:10.802Z,65.00
2023-02-13T03:08:56.726Z,64.38
2023-02-13T03:11:38.383Z,64.46
2023-02-13T03:14:09.559Z,64.84
2023-02-13T03:16:54.603Z,64.09
2023-02-13T03:20:04.698Z,64.94
2023-02-13T03:22:43.466Z,64.51
2023-02-13T03:25:19.079Z,64.20
2023-02-13T03:28:09.381Z,64.29
2023-02-13T03:30:48.205Z,64.97
2023-02-13T03:33:29.083Z,64.08
2023-02-13T03:36:23.293Z,64.62
2023-02-13T03:38:59.354Z,64.27
2023-02-13T03:41:31.463Z,63.98
2023-02-13T03:44:12.184Z,64.12
2023-02-13T03:46:43.150Z,64.98
2023-02-13T03:49:35.182Z,64.63
2023-02-13T03:52:07.458Z,63.89
2023-02-13T03:55:01.248Z,64.00
2023-02-13T03:57:50.588Z,63.96
2023-02-13T04:00:20.325Z,64.17
2023-02-13T04:02:55.965Z,63.45
2023-02-13T04:05:27.258Z,63.69
2023-02-13T04:07:55.087Z,63.70
2023-02-13T04:10:28.716Z,63.81
2023-02-13T04:13:04.233Z,63.95
2023-02-13T04:15:37.697Z,63.70
2023-02-13T04:18:11.158Z,63.23
2023-02-13T04:20:40.062Z,64.21
2023-02-13T04:23:09.469Z,63.53
2023-02-13T04:25:41.213Z,64.56
2023-02-13T04:28:09.127Z,63.71
2023-02-13T04:30:36.953Z,64.33
2023-02-13T04:33:04.932Z,63.81
2023-02-13T04:35:32.798Z,64.29
2023-02-13T04:38:00.565Z,63.89
2023-02-13T04:40:28.284Z,63.62
2023-02-13T04:42:57.600Z,63.72
2023-02-13T04:45:25.320Z,63.56
2023-02-13T04:47:53.942Z,64.26
2023-02-13T04:50:22.558Z,63.37
2023-02-13T04:52:55.039Z,63.56
2023-02-13T04:55:23.165Z,63.59
2023-02-13T04:57:53.676Z,63.18
2023-02-13T05:00:24.062Z,63.02
2023-02-13T05:02:52.407Z,63.57
2023-02-13T05:05:20.622Z,63.59
2023-02-13T05:07:48.484Z,62.58
2023-02-13T05:10:16.311Z,62.84
2023-02-13T05:12:44.064Z,62.60
2023-02-13T05:15:12.203Z,63.47
2023-02-13T05:17:41.278Z,63.07
2023-02-13T05:20:09.620Z,62.83
2023-02-13T05:22:54.683Z,62.76
2023-02-13T05:25:22.767Z,63.31
2023-02-13T05:27:50.499Z,62.89
2023-02-13T05:30:18.399Z,63.43
2023-02-13T05:32:47.440Z,63.06
2023-02-13T05:35:15.192Z,62.59
2023-02-13T05:37:42.905Z,62.82
2023-02-13T05:40:11.755Z,63.38
2023-02-13T05:42:39.469Z,62.72
2023-02-13T05:45:08.033Z,63.40
2023-02-13T05:47:35.731Z,63.23
2023-02-13T05:50:05.134Z,62.77
2023-02-13T05:52:32.839Z,62.29
2023-02-13T05:55:00.569Z,62.51
2023-02-13T05:57:28.283Z,63.37
2023-02-13T05:59:55.984Z,62.31
2023-02-13T06:02:24.900Z,63.22
2023-02-13T06:04:52.696Z,63.24
2023-02-13T06:07:21.792Z,62.22
2023-02-13T06:09:49.499Z,61.41
2023-02-13T06:12:17.183Z,61.09
2023-02-13T06:14:44.915Z,60.83
2023-02-13T06:17:12.599Z,60.26
2023-02-13T06:19:40.332Z,60.37
2023-02-13T06:22:08.089Z,59.44
2023-02-13T06:24:37.188Z,59.48
2023-02-13T06:27:05.005Z,59.40
2023-02-13T06:29:33.044Z,58.95
2023-02-13T06:32:00.817Z,58.72
2023-02-13T06:34:28.570Z,59.09
2023-02-13T06:36:56.246Z,58.78
2023-02-13T06:39:23.967Z,59.73
2023-02-13T06:41:53.031Z,59.78
2023-02-13T06:44:20.749Z,60.33
2023-02-13T06:46:48.427Z,60.32
2023-02-13T06:49:16.188Z,60.24
2023-02-13T06:51:43.941Z,60.56
2023-02-13T06:54:11.673Z,61.50
2023-02-13T06:56:39.404Z,61.77
2023-02-13T06:59:08.660Z,61.21
2023-02-13T07:01:36.428Z,61.33
2023-02-13T07:04:04.172Z,62.11
2023-02-13T07:06:33.477Z,61.52
2023-02-13T07:09:02.176Z,61.58
2023-02-13T07:11:29.931Z,61.58
2023-02-13T07:13:57.648Z,62.15
2023-02-13T07:16:26.764Z,62.17
2023-02-13T07:18:54.472Z,62.20
2023-02-13T07:21:22.229Z,62.46
2023-02-13T07:23:49.979Z,62.70
2023-02-13T07:26:17.758Z,62.87
2023-02-13T07:28:45.934Z,62.86
2023-02-13T07:31:13.779Z,62.34
2023-02-13T07:33:42.967Z,62.57
2023-02-13T07:36:10.828Z,62.69
2023-02-13T07:38:38.585Z,62.18
2023-02-13T07:41:06.423Z,62.64
2023-02-13T07:43:34.410Z,62.58
2023-02-13T07:46:03.479Z,62.52
2023-02-13T07:48:31.731Z,62.71
2023-02-13T07:51:04.077Z,63.19
2023-02-13T07:53:31.831Z,62.69
2023-02-13T07:55:59.766Z,63.13
2023-02-13T07:58:27.701Z,62.91
2023-02-13T08:00:55.492Z,62.65
2023-02-13T08:03:23.220Z,62.87
2023-02-13T08:05:50.979Z,62.77
2023-02-13T08:08:20.063Z,62.64
2023-02-13T08:11:05.279Z,62.52
2023-02-13T08:13:33.656Z,63.11
2023-02-13T08:16:01.497Z,62.88
2023-02-13T08:18:29.310Z,62.92
2023-02-13T08:20:57.111Z,63.14
2023-02-13T08:23:26.857Z,62.97
2023-02-13T08:25:55.824Z,63.12
2023-02-13T08:28:23.825Z,62.90
2023-02-13T08:30:51.579Z,62.61
2023-02-13T08:33:19.364Z,62.94
2023-02-13T08:35:47.122Z,62.98
2023-02-13T08:38:14.824Z,63.26
2023-02-13T08:40:43.982Z,63.12
2023-02-13T08:43:11.674Z,63.64
2023-02-13T08:45:39.445Z,63.58
2023-02-13T08:48:07.571Z,63.25
2023-02-13T08:50:37.007Z,63.23
2023-02-13T08:53:05.396Z,62.45
2023-02-13T08:55:33.147Z,62.64
2023-02-13T08:58:02.927Z,62.07
2023-02-13T09:00:31.204Z,60.78
2023-02-13T09:03:02.410Z,60.35
2023-02-13T09:05:31.701Z,60.33
2023-02-13T09:08:01.276Z,60.33
2023-02-13T09:10:29.008Z,60.70
2023-02-13T09:12:56.895Z,61.42
2023-02-13T09:15:25.973Z,61.62
2023-02-13T09:17:53.785Z,61.60
2023-02-13T09:20:21.578Z,62.42
2023-02-13T09:22:49.738Z,62.01
2023-02-13T09:25:17.628Z,62.20
2023-02-13T09:27:45.861Z,62.84
2023-02-13T09:30:22.991Z,63.56
2023-02-13T09:32:53.881Z,63.73
2023-02-13T09:35:23.333Z,63.40
2023-02-13T09:37:51.091Z,63.29
2023-02-13T09:40:22.438Z,63.39
2023-02-13T09:42:51.013Z,63.35
2023-02-13T09:45:22.424Z,63.57
2023-02-13T09:47:53.238Z,63.50
2023-02-13T09:50:25.179Z,63.59
2023-02-13T09:52:54.909Z,62.85
2023-02-13T09:55:25.422Z,63.08
2023-02-13T09:57:59.617Z,61.71
2023-02-13T10:00:33.810Z,62.26
2023-02-13T10:03:20.219Z,61.59
2023-02-13T10:05:57.874Z,61.43
2023-02-13T10:08:43.486Z,61.76
2023-02-13T10:11:29.238Z,61.98
2023-02-13T10:14:05.597Z,62.49
2023-02-13T10:16:38.152Z,62.47
2023-02-13T10:19:17.888Z,62.69
2023-02-13T10:21:53.058Z,62.53
2023-02-13T10:24:31.120Z,62.21
2023-02-13T10:27:01.994Z,61.76
2023-02-13T10:29:57.284Z,61.95
2023-02-13T10:32:35.801Z,60.80
2023-02-13T10:35:17.638Z,60.53
2023-02-13T10:37:50.884Z,60.97
2023-02-13T10:40:19.767Z,61.37
2023-02-13T10:42:54.545Z,62.06
2023-02-13T10:45:41.355Z,62.69
2023-02-13T10:48:25.412Z,62.91
2023-02-13T10:51:05.744Z,62.96
2023-02-13T10:53:50.072Z,63.34
2023-02-13T10:56:26.543Z,63.38
2023-02-13T10:59:16.606Z,64.46
2023-02-13T11:01:51.687Z,64.21
2023-02-13T11:04:21.148Z,64.55
2023-02-13T11:06:57.033Z,64.50
2023-02-13T11:09:26.266Z,64.68
2023-02-13T11:11:55.178Z,64.91
2023-02-13T11:14:24.785Z,64.68
2023-02-13T11:16:56.994Z,65.31
2023-02-13T11:19:30.171Z,65.44
2023-02-13T11:22:03.217Z,64.90
2023-02-13T11:24:32.341Z,65.39
2023-02-13T11:27:04.592Z,64.92
2023-02-13T11:29:34.807Z,65.82
2023-02-13T11:32:20.082Z,65.54
2023-02-13T11:34:50.595Z,65.30
2023-02-13T11:37:23.344Z,66.24
2023-02-13T11:39:52.657Z,65.48
2023-02-13T11:42:28.878Z,65.88
2023-02-13T11:45:01.227Z,66.44
2023-02-13T11:47:40.658Z,66.11
2023-02-13T11:50:22.411Z,66.15
2023-02-13T11:53:00.075Z,66.36
2023-02-13T11:55:31.996Z,66.59
2023-02-13T11:58:01.811Z,66.25
2023-02-13T12:00:39.961Z,65.80
2023-02-13T12:03:27.178Z,65.99
2023-02-13T12:06:04.180Z,66.07
2023-02-13T12:08:37.017Z,66.77
2023-02-13T12:11:17.972Z,66.74
2023-02-13T12:13:46.836Z,66.62
2023-02-13T12:16:31.205Z,66.71
2023-02-13T12:19:04.559Z,65.79
2023-02-13T12:21:48.267Z,65.80
2023-02-13T12:24:30.396Z,66.51
2023-02-13T12:27:07.112Z,66.08
2023-02-13T12:30:00.531Z,66.02
2023-02-13T12:32:39.671Z,66.14
2023-02-13T12:35:36.567Z,65.73
2023-02-13T12:38:12.985Z,66.29
2023-02-13T12:41:04.416Z,66.40
2023-02-13T12:44:00.639Z,65.82
2023-02-13T12:46:34.460Z,66.29
2023-02-13T12:49:16.477Z,65.75
2023-02-13T12:51:51.402Z,65.53
2023-02-13T12:54:41.160Z,66.25
2023-02-13T12:57:22.590Z,65.76
2023-02-13T13:00:07.154Z,65.50
2023-02-13T13:03:00.493Z,66.00
2023-02-13T13:05:40.865Z,66.23
2023-02-13T13:08:23.904Z,66.25
2023-02-13T13:11:17.081Z,65.93
2023-02-13T13:14:00.756Z,66.19
2023-02-13T13:16:42.890Z,66.31
2023-02-13T13:19:19.777Z,65.69
2023-02-13T13:21:53.504Z,65.79
2023-02-13T13:24:35.514Z,66.19
2023-02-13T13:27:04.328Z,65.87
2023-02-13T13:29:41.072Z,66.79
2023-02-13T13:32:12.370Z,66.42
2023-02-13T13:34:40.744Z,66.96
2023-02-13T13:37:15.668Z,66.91
2023-02-13T13:39:52.539Z,67.08
2023-02-13T13:42:26.898Z,67.00
2023-02-13T13:45:10.830Z,67.23
2023-02-13T13:47:52.425Z,67.42
2023-02-13T13:50:23.502Z,66.83
2023-02-13T13:53:11.603Z,67.37
2023-02-13T13:56:06.660Z,67.22
2023-02-13T13:58:43.583Z,67.17
2023-02-13T14:01:22.349Z,66.81
2023-02-13T14:03:51.532Z,67.00
2023-02-13T14:06:21.226Z,66.88
2023-02-13T14:09:08.547Z,66.10
2023-02-13T14:11:37.603Z,66.65
2023-02-13T14:14:56.062Z,67.09
2023-02-13T14:17:53.206Z,67.15
2023-02-13T14:20:35.392Z,67.52
2023-02-13T14:23:27.927Z,67.08
2023-02-13T14:26:31.569Z,67.48
2023-02-13T14:29:28.220Z,67.27
2023-02-13T14:32:15.839Z,67.80
2023-02-13T14:34:54.060Z,67.80
2023-02-13T14:37:30.203Z,67.49
2023-02-13T14:40:36.956Z,67.59
2023-02-13T14:43:29.958Z,67.53
2023-02-13T14:46:00.051Z,67.65
2023-02-13T14:48:38.522Z,67.84
2023-02-13T14:51:15.477Z,68.02
2023-02-13T14:53:51.382Z,68.25
2023-02-13T14:56:22.547Z,68.34
2023-02-13T14:58:55.252Z,68.24
2023-02-13T15:01:31.316Z,68.63
2023-02-13T15:04:05.655Z,68.71
2023-02-13T15:06:39.500Z,68.77
2023-02-13T15:09:20.518Z,68.17
2023-02-13T15:11:48.300Z,67.60
2023-02-13T15:14:25.664Z,67.14
2023-02-13T15:17:00.617Z,66.29
2023-02-13T15:19:28.476Z,65.68
2023-02-13T15:22:00.378Z,65.16
2023-02-13T15:24:31.937Z,64.86
2023-02-13T15:27:03.091Z,63.93
2023-02-13T15:29:44.280Z,63.54
2023-02-13T15:32:21.208Z,63.84
2023-02-13T15:34:49.973Z,64.27
2023-02-13T15:37:24.609Z,64.79
2023-02-13T15:39:52.353Z,64.83
2023-02-13T15:42:20.229Z,65.19
2023-02-13T15:44:51.002Z,65.95
2023-02-13T15:47:24.316Z,65.82
2023-02-13T15:49:52.504Z,66.07
2023-02-13T15:52:25.875Z,66.26
2023-02-13T15:54:56.079Z,66.94
2023-02-13T15:57:26.798Z,66.85
2023-02-13T15:59:56.647Z,66.92
2023-02-13T16:02:29.523Z,66.93
2023-02-13T16:04:57.724Z,67.03
2023-02-13T16:07:26.852Z,66.93
2023-02-13T16:10:17.931Z,66.99
2023-02-13T16:12:49.749Z,66.73
2023-02-13T16:15:20.985Z,66.89
2023-02-13T16:17:49.721Z,66.85
2023-02-13T16:20:21.676Z,67.18
2023-02-13T16:22:53.885Z,67.37
2023-02-13T16:25:25.843Z,67.28
2023-02-13T16:27:56.591Z,67.14
2023-02-13T16:30:30.757Z,67.10
2023-02-13T16:33:13.064Z,67.21
2023-02-13T16:35:43.946Z,67.33
2023-02-13T16:38:35.466Z,67.27
2023-02-13T16:41:05.890Z,67.26
2023-02-13T16:43:52.568Z,67.24
2023-02-13T16:46:35.005Z,67.15
2023-02-13T16:49:24.691Z,67.16
2023-02-13T16:51:57.753Z,67.20
2023-02-13T16:54:31.637Z,67.17
2023-02-13T16:57:02.636Z,67.07
2023-02-13T16:59:49.558Z,67.25
2023-02-13T17:02:23.114Z,66.21
2023-02-13T17:04:53.818Z,66.13
2023-02-13T17:07:25.035Z,65.63
2023-02-13T17:10:00.783Z,65.14
2023-02-13T17:12:30.784Z,64.55
2023-02-13T17:14:59.819Z,64.34
2023-02-13T17:17:30.745Z,63.78
2023-02-13T17:19:58.954Z,63.03
2023-02-13T17:22:33.128Z,62.79
2023-02-13T17:25:04.850Z,62.16
2023-02-13T17:27:32.639Z,62.24
2023-02-13T17:30:00.445Z,62.62
2023-02-13T17:32:29.328Z,62.77
2023-02-13T17:34:57.241Z,63.17
2023-02-13T17:37:26.485Z,63.39
2023-02-13T17:39:54.835Z,63.83
2023-02-13T17:42:26.579Z,64.00
2023-02-13T17:44:55.436Z,64.02
2023-02-13T17:47:24.300Z,64.20
2023-02-13T17:49:55.127Z,64.10
2023-02-13T17:52:27.906Z,64.33
2023-02-13T17:54:55.698Z,64.44
2023-02-13T17:57:25.060Z,64.57
2023-02-13T17:59:52.843Z,64.60
2023-02-13T18:02:22.479Z,64.66
2023-02-13T18:04:51.000Z,64.55
2023-02-13T18:07:21.199Z,64.29
2023-02-13T18:09:48.985Z,63.81
2023-02-13T18:12:19.180Z,63.02
2023-02-13T18:14:48.510Z,62.32
2023-02-13T18:17:17.419Z,61.51
2023-02-13T18:19:45.380Z,61.43
2023-02-13T18:22:13.753Z,61.42
2023-02-13T18:24:42.949Z,61.45
2023-02-13T18:27:12.422Z,61.94
2023-02-13T18:29:40.426Z,62.23
2023-02-13T18:32:10.889Z,62.30
2023-02-13T18:34:39.825Z,62.48
2023-02-13T18:37:09.430Z,62.56
2023-02-13T18:39:37.222Z,62.75
2023-02-13T18:42:05.430Z,62.85
2023-02-13T18:44:33.423Z,63.05
2023-02-13T18:47:01.454Z,63.04
2023-02-13T18:49:30.542Z,62.82
2023-02-13T18:51:59.173Z,63.28
2023-02-13T18:54:26.917Z,63.28
2023-02-13T18:56:54.702Z,63.23
2023-02-13T18:59:23.052Z,63.25
2023-02-13T19:01:51.230Z,63.32
2023-02-13T19:04:19.095Z,63.51
2023-02-13T19:06:48.217Z,63.43
2023-02-13T19:09:15.930Z,62.97
2023-02-13T19:11:44.640Z,62.47
2023-02-13T19:14:14.302Z,61.94
2023-02-13T19:16:42.533Z,61.62
2023-02-13T19:19:10.282Z,61.17
2023-02-13T19:21:39.879Z,60.54
2023-02-13T19:24:11.918Z,60.15
2023-02-13T19:26:39.646Z,59.81
2023-02-13T19:29:07.359Z,59.39
2023-02-13T19:31:35.516Z,59.13
2023-02-13T19:34:05.595Z,59.37
2023-02-13T19:36:33.559Z,60.34
2023-02-13T19:39:03.364Z,60.16
2023-02-13T19:41:33.020Z,60.68
2023-02-13T19:44:01.168Z,60.83
2023-02-13T19:46:30.456Z,61.03
2023-02-13T19:48:58.992Z,61.38
2023-02-13T19:51:29.407Z,61.24
2023-02-13T19:53:58.117Z,61.82
2023-02-13T19:56:27.270Z,61.79
2023-02-13T19:58:56.750Z,61.89
2023-02-13T20:01:27.503Z,62.00
2023-02-13T20:03:55.547Z,62.05
2023-02-13T20:06:25.601Z,62.32
2023-02-13T20:08:53.842Z,62.37
2023-02-13T20:11:23.060Z,62.43
2023-02-13T20:13:55.476Z,62.37
2023-02-13T20:16:24.979Z,62.33
2023-02-13T20:18:53.215Z,62.14
2023-02-13T20:21:21.377Z,62.26
2023-02-13T20:23:51.447Z,62.42
2023-02-13T20:26:19.732Z,62.38
2023-02-13T20:28:48.236Z,62.52
2023-02-13T20:31:17.771Z,62.55
2023-02-13T20:33:48.133Z,62.48
2023-02-13T20:36:18.275Z,62.27
2023-02-13T20:38:46.054Z,62.47
2023-02-13T20:41:15.950Z,62.20
2023-02-13T20:43:44.340Z,62.49
2023-02-13T20:46:13.398Z,62.44
2023-02-13T20:48:41.572Z,62.47
2023-02-13T20:51:13.459Z,62.47
2023-02-13T20:53:42.231Z,62.69
2023-02-13T20:56:12.094Z,62.33
2023-02-13T20:58:41.010Z,62.28
2023-02-13T21:01:13.312Z,62.42
2023-02-13T21:03:41.600Z,62.24
2023-02-13T21:06:11.929Z,62.37
2023-02-13T21:08:39.740Z,62.60
2023-02-13T21:11:08.948Z,62.13
2023-02-13T21:13:37.111Z,62.46
2023-02-13T21:16:07.702Z,62.16
2023-02-13T21:18:35.492Z,62.58
2023-02-13T21:21:03.517Z,62.15
2023-02-13T21:23:33.310Z,62.65
2023-02-13T21:26:03.122Z,62.18
2023-02-13T21:28:30.980Z,62.58
2023-02-13T21:30:59.063Z,62.02
2023-02-13T21:33:26.907Z,62.07
2023-02-13T21:36:01.224Z,62.61
2023-02-13T21:38:29.042Z,62.02
2023-02-13T21:41:05.336Z,62.50
2023-02-13T21:43:37.467Z,62.01
2023-02-13T21:46:09.472Z,62.12
2023-02-13T21:48:37.251Z,61.82
2023-02-13T21:51:08.358Z,62.12
2023-02-13T21:53:36.334Z,61.97
2023-02-13T21:56:06.515Z,61.59
2023-02-13T21:58:34.374Z,61.71
2023-02-13T22:01:02.525Z,61.65
2023-02-13T22:03:30.527Z,61.93
2023-02-13T22:05:58.245Z,61.90
2023-02-13T22:08:25.978Z,61.53
2023-02-13T22:10:54.820Z,61.78
2023-02-13T22:13:24.297Z,61.45
2023-02-13T22:16:00.000Z,61.63
2023-02-13T22:18:27.817Z,61.38
2023-02-13T22:20:55.992Z,61.26
2023-02-13T22:23:23.853Z,61.51
2023-02-13T22:25:52.020Z,61.58
2023-02-13T22:28:19.735Z,61.58
2023-02-13T22:30:48.924Z,61.37
2023-02-13T22:33:16.785Z,61.84
2023-02-13T22:35:44.654Z,61.33
2023-02-13T22:38:12.372Z,61.61
2023-02-13T22:40:40.351Z,61.42
2023-02-13T22:43:08.420Z,61.80
2023-02-13T22:45:36.954Z,61.34
2023-02-13T22:48:07.339Z,61.41
2023-02-13T22:50:36.223Z,61.41
2023-02-13T22:53:03.992Z,61.27
2023-02-13T22:55:33.481Z,61.32
2023-02-13T22:58:01.222Z,61.72
2023-02-13T23:00:28.934Z,61.12
2023-02-13T23:02:56.665Z,61.23
2023-02-13T23:05:25.750Z,61.37
2023-02-13T23:07:53.498Z,61.41
2023-02-13T23:10:21.596Z,61.19
2023-02-13T23:12:49.907Z,61.33
2023-02-13T23:15:17.620Z,61.22
2023-02-13T23:18:02.738Z,61.15
2023-02-13T23:20:31.942Z,61.44
2023-02-13T23:22:59.700Z,60.91
2023-02-13T23:25:27.431Z,60.86
2023-02-13T23:27:56.745Z,61.01
2023-02-13T23:30:25.499Z,61.25
2023-02-13T23:32:53.231Z,60.81
2023-02-13T23:35:21.527Z,60.94
2023-02-13T23:37:50.661Z,61.18
2023-02-13T23:40:19.166Z,60.96
2023-02-13T23:42:47.069Z,61.22
2023-02-13T23:45:14.838Z,60.90
2023-02-13T23:47:42.512Z,61.17
2023-02-13T23:50:10.923Z,60.90
2023-02-13T23:52:38.662Z,61.53
2023-02-13T23:55:08.324Z,60.90
2023-02-13T23:57:36.369Z,61.01
